Time;durP1;ratioP1;P1;durP2;ratioP2;P2;SDS_P1;SDS_P2;PMS_P1;PMS_P2;Temp;Humidity;BMP_temperature;BMP_pressure;BME280_temperature;BME280_humidity;BME280_pressure;Samples;Min_cycle;Max_cycle;Signal;HPM_P1;HPM_P2
2023/09/04 00:00:10;;;;;;;4.50;3.53;;;17.10;99.90;;;;;;5083486;28;20051;-82
2023/09/04 00:02:37;;;;;;;4.20;3.80;;;17.10;99.90;;;;;;5065163;28;20044;-81
2023/09/04 00:05:04;;;;;;;3.47;3.15;;;17.10;1.00;;;;;;5082124;28;20387;-82
2023/09/04 00:07:31;;;;;;;2.53;2.33;;;17.10;99.90;;;;;;5082902;28;20048;-81
2023/09/04 00:09:59;;;;;;;2.33;2.13;;;17.00;99.90;;;;;;5063695;28;20044;-82
2023/09/04 00:12:26;;;;;;;2.20;2.00;;;17.00;99.90;;;;;;5094223;27;20054;-82
2023/09/04 00:14:53;;;;;;;2.78;2.42;;;17.00;99.90;;;;;;5047442;28;20054;-82
2023/09/04 00:17:20;;;;;;;3.30;2.80;;;17.10;1.00;;;;;;5065077;28;20525;-82
2023/09/04 00:19:47;;;;;;;3.30;2.78;;;17.10;1.00;;;;;;5081476;28;20465;-81
2023/09/04 00:22:14;;;;;;;3.40;3.05;;;17.00;1.00;;;;;;5065241;28;20444;-81
2023/09/04 00:24:41;;;;;;;3.30;2.65;;;17.00;1.00;;;;;;5081069;28;20048;-81
2023/09/04 00:27:08;;;;;;;3.38;3.08;;;17.10;1.00;;;;;;5081218;28;20060;-82
2023/09/04 00:29:34;;;;;;;4.45;3.42;;;17.00;1.00;;;;;;5079915;28;20499;-81
2023/09/04 00:32:02;;;;;;;3.47;3.05;;;17.00;1.00;;;;;;5081117;28;20105;-81
2023/09/04 00:34:30;;;;;;;3.53;3.03;;;17.00;1.00;;;;;;5080918;28;20414;-81
2023/09/04 00:36:57;;;;;;;3.65;3.10;;;17.00;1.00;;;;;;5081132;28;20048;-81
2023/09/04 00:39:24;;;;;;;4.25;3.85;;;17.00;1.00;;;;;;5081146;28;20120;-81
2023/09/04 00:41:50;;;;;;;4.43;3.72;;;17.00;1.00;;;;;;5081065;28;20363;-81
2023/09/04 00:44:17;;;;;;;3.88;3.47;;;17.00;1.00;;;;;;5046606;28;20220;-81
2023/09/04 00:46:44;;;;;;;4.53;4.13;;;17.00;1.00;;;;;;5064403;28;20051;-81
2023/09/04 00:49:11;;;;;;;3.95;3.38;;;17.00;1.00;;;;;;5063950;28;20097;-81
2023/09/04 00:51:39;;;;;;;4.40;3.45;;;17.00;1.00;;;;;;5081500;28;20055;-82
2023/09/04 00:54:06;;;;;;;4.82;3.60;;;17.00;1.00;;;;;;5064321;28;20098;-82
2023/09/04 00:56:33;;;;;;;4.13;3.63;;;17.00;1.00;;;;;;5064093;28;20040;-82
2023/09/04 00:58:59;;;;;;;3.33;3.03;;;17.00;1.00;;;;;;5061982;28;20044;-82
2023/09/04 01:01:26;;;;;;;3.80;3.40;;;16.90;1.00;;;;;;5064245;28;20423;-82
2023/09/04 01:03:53;;;;;;;3.88;3.42;;;17.00;1.00;;;;;;5063853;28;20051;-81
2023/09/04 01:06:20;;;;;;;4.15;3.75;;;16.90;1.00;;;;;;5080511;28;20214;-82
2023/09/04 01:08:47;;;;;;;3.42;2.92;;;16.90;1.00;;;;;;5063637;28;20109;-81
2023/09/04 01:11:42;;;;;;;5.22;4.00;;;16.90;1.00;;;;;;5063620;28;20447;-81
2023/09/04 01:14:17;;;;;;;4.10;3.53;;;16.90;1.00;;;;;;5079442;28;20052;-81
2023/09/04 01:16:44;;;;;;;3.95;3.10;;;16.90;1.00;;;;;;5082049;28;20093;-82
2023/09/04 01:19:11;;;;;;;5.18;4.47;;;16.90;1.00;;;;;;5080111;28;20552;-81
2023/09/04 01:21:38;;;;;;;4.93;3.80;;;16.90;29.90;;;;;;5064073;28;20392;-82
2023/09/04 01:24:08;;;;;;;4.68;4.18;;;16.80;54.40;;;;;;5063622;28;20116;-81
2023/09/04 01:26:40;;;;;;;4.93;4.38;;;16.80;91.30;;;;;;5080630;28;20059;-81
2023/09/04 01:29:23;;;;;;;4.95;4.40;;;16.90;99.50;;;;;;5079156;28;20044;-81
2023/09/04 01:32:11;;;;;;;5.70;4.60;;;16.90;99.90;;;;;;5059224;28;20047;-80
2023/09/04 01:34:41;;;;;;;5.30;4.32;;;17.00;99.90;;;;;;5075466;28;20075;-81
2023/09/04 01:37:08;;;;;;;4.28;3.88;;;17.00;99.90;;;;;;5078650;28;20167;-82
2023/09/04 01:39:36;;;;;;;4.95;4.43;;;17.10;99.90;;;;;;5044423;28;20052;-81
2023/09/04 01:42:03;;;;;;;4.53;4.07;;;17.20;99.90;;;;;;5045610;28;20055;-80
2023/09/04 01:44:30;;;;;;;4.57;3.97;;;17.20;99.90;;;;;;5062941;28;20094;-81
2023/09/04 01:46:57;;;;;;;6.35;4.95;;;17.30;99.90;;;;;;5079762;28;20070;-81
2023/09/04 01:49:23;;;;;;;7.03;6.22;;;17.30;99.90;;;;;;5058695;28;20051;-81
2023/09/04 01:51:51;;;;;;;7.50;6.53;;;17.40;99.90;;;;;;5081740;28;20044;-81
2023/09/04 01:54:18;;;;;;;8.82;7.57;;;17.40;99.90;;;;;;5067626;28;20044;-81
2023/09/04 01:56:45;;;;;;;9.00;7.43;;;17.40;99.90;;;;;;5085191;28;20056;-81
2023/09/04 01:59:12;;;;;;;11.05;9.05;;;17.50;99.90;;;;;;5082559;28;20055;-82
2023/09/04 02:01:38;;;;;;;10.75;8.48;;;17.50;99.90;;;;;;5083608;28;20592;-81
2023/09/04 02:04:05;;;;;;;9.40;8.13;;;17.50;99.90;;;;;;5050687;28;20143;-81
2023/09/04 02:06:32;;;;;;;11.38;8.45;;;17.50;99.90;;;;;;5065522;28;20048;-81
2023/09/04 02:08:59;;;;;;;10.25;7.00;;;17.50;99.90;;;;;;5048478;28;20099;-82
2023/09/04 02:11:26;;;;;;;9.15;8.10;;;17.60;99.90;;;;;;5064806;28;20048;-81
2023/09/04 02:13:52;;;;;;;10.68;9.00;;;17.60;99.90;;;;;;5058403;28;20098;-81
2023/09/04 02:16:19;;;;;;;8.55;6.80;;;17.60;99.90;;;;;;5048363;28;20052;-82
2023/09/04 02:18:47;;;;;;;8.10;6.97;;;17.60;99.90;;;;;;5048302;28;20106;-80
2023/09/04 02:21:14;;;;;;;6.82;6.10;;;17.70;99.90;;;;;;5068038;28;20051;-80
2023/09/04 02:23:41;;;;;;;9.90;8.48;;;17.70;99.90;;;;;;5085711;28;20067;-81
2023/09/04 02:26:09;;;;;;;11.23;8.88;;;17.70;99.90;;;;;;5085946;28;20089;-81
2023/09/04 02:28:36;;;;;;;10.95;8.90;;;17.70;99.90;;;;;;5067157;28;20052;-81
2023/09/04 02:31:08;;;;;;;9.02;7.40;;;17.70;99.90;;;;;;5085013;28;20052;-80
2023/09/04 02:33:36;;;;;;;10.98;8.55;;;17.70;99.90;;;;;;5051494;28;20052;-81
2023/09/04 02:36:03;;;;;;;9.13;7.68;;;17.70;99.90;;;;;;5051385;28;20128;-80
2023/09/04 02:38:29;;;;;;;8.75;7.47;;;17.70;99.90;;;;;;5084474;28;20105;-81
2023/09/04 02:40:57;;;;;;;8.48;7.03;;;17.80;99.90;;;;;;5084837;28;20052;-81
2023/09/04 02:43:24;;;;;;;8.25;7.15;;;17.80;99.90;;;;;;5083986;28;20055;-81
2023/09/04 02:45:52;;;;;;;7.45;6.25;;;17.80;99.90;;;;;;5068144;28;20117;-81
2023/09/04 02:48:19;;;;;;;8.35;6.00;;;17.80;99.90;;;;;;5050739;28;20052;-81
2023/09/04 02:50:46;;;;;;;7.45;5.25;;;17.80;99.90;;;;;;5068026;28;20040;-81
2023/09/04 02:53:13;;;;;;;7.60;6.22;;;17.90;99.90;;;;;;5051057;28;20071;-81
2023/09/04 02:55:45;;;;;;;9.45;7.25;;;17.90;99.90;;;;;;5084300;28;20051;-81
2023/09/04 02:58:12;;;;;;;7.78;6.22;;;17.90;99.90;;;;;;5050232;28;20538;-80
2023/09/04 03:00:43;;;;;;;7.78;6.40;;;17.90;99.90;;;;;;5067662;28;20083;-81
2023/09/04 03:03:11;;;;;;;7.15;6.03;;;17.90;99.90;;;;;;5051632;28;20131;-81
2023/09/04 03:05:38;;;;;;;7.40;5.95;;;17.90;99.90;;;;;;5084743;28;20107;-81
2023/09/04 03:08:05;;;;;;;7.45;5.55;;;17.90;99.90;;;;;;5084313;28;20052;-81
2023/09/04 03:10:32;;;;;;;6.80;5.78;;;17.90;99.90;;;;;;5067953;28;20512;-82
2023/09/04 03:12:58;;;;;;;9.23;7.22;;;17.90;99.90;;;;;;5083087;28;20043;-81
2023/09/04 03:15:25;;;;;;;8.27;6.63;;;17.90;99.90;;;;;;5084266;28;20055;-81
2023/09/04 03:17:52;;;;;;;7.15;5.80;;;17.90;99.90;;;;;;5084063;28;20048;-81
2023/09/04 03:20:19;;;;;;;8.63;7.03;;;18.00;99.90;;;;;;5084645;28;20055;-81
2023/09/04 03:22:47;;;;;;;8.38;6.57;;;18.00;99.90;;;;;;5087964;28;20487;-81
2023/09/04 03:25:14;;;;;;;7.32;5.63;;;18.00;99.90;;;;;;5088258;28;20505;-80
2023/09/04 03:27:41;;;;;;;9.38;7.10;;;18.00;99.90;;;;;;5067895;28;20105;-81
2023/09/04 03:30:10;;;;;;;9.98;8.10;;;18.00;99.90;;;;;;5086378;28;20084;-81
2023/09/04 03:32:37;;;;;;;10.13;7.75;;;18.10;99.90;;;;;;5071279;28;20040;-82
2023/09/04 03:35:04;;;;;;;13.63;10.35;;;18.00;99.90;;;;;;5087402;28;20075;-81
2023/09/04 03:37:36;;;;;;;10.30;8.65;;;18.00;99.90;;;;;;5070668;28;20052;-80
2023/09/04 03:40:25;;;;;;;9.13;7.82;;;18.00;99.90;;;;;;5087413;28;20047;-82
2023/09/04 03:42:52;;;;;;;11.07;8.88;;;18.10;99.90;;;;;;5081776;28;20049;-81
2023/09/04 03:45:19;;;;;;;11.57;9.75;;;18.00;99.90;;;;;;5066169;28;20486;-82
2023/09/04 03:47:46;;;;;;;11.55;8.80;;;18.00;99.90;;;;;;5086920;28;20052;-81
2023/09/04 03:50:14;;;;;;;10.20;8.13;;;18.00;99.90;;;;;;5070911;28;20105;-82
2023/09/04 03:52:41;;;;;;;11.02;8.13;;;18.00;99.90;;;;;;5086685;28;20060;-81
2023/09/04 03:55:09;;;;;;;11.10;8.05;;;18.00;99.90;;;;;;5086666;28;20048;-81
2023/09/04 03:57:36;;;;;;;10.25;8.23;;;18.00;99.90;;;;;;5070647;28;20534;-81
2023/09/04 04:00:14;;;;;;;11.00;8.90;;;18.10;99.90;;;;;;5052446;28;20442;-81
2023/09/04 04:02:41;;;;;;;9.30;7.60;;;18.10;99.90;;;;;;5071390;28;20048;-81
2023/09/04 04:05:11;;;;;;;11.18;8.40;;;18.10;99.90;;;;;;5087511;28;20036;-81
2023/09/04 04:07:38;;;;;;;9.40;7.43;;;18.10;99.90;;;;;;5066304;28;20542;-81
2023/09/04 04:10:06;;;;;;;10.38;7.22;;;18.10;99.90;;;;;;5069595;28;20048;-81
2023/09/04 04:12:33;;;;;;;9.85;7.85;;;18.10;99.90;;;;;;5088027;28;20048;-81
2023/09/04 04:15:03;;;;;;;10.60;8.23;;;18.10;99.90;;;;;;5084466;28;20562;-81
2023/09/04 04:17:30;;;;;;;9.90;7.75;;;18.10;99.90;;;;;;5082655;28;20360;-82
2023/09/04 04:19:57;;;;;;;9.05;7.30;;;18.10;99.90;;;;;;5068172;28;20055;-80
2023/09/04 04:22:24;;;;;;;11.85;9.20;;;18.20;99.90;;;;;;5069510;28;20052;-81
2023/09/04 04:24:50;;;;;;;9.75;7.80;;;18.10;99.90;;;;;;5060694;28;20507;-81
2023/09/04 04:27:17;;;;;;;10.23;8.27;;;18.10;99.90;;;;;;5069877;28;20052;-82
2023/09/04 04:29:45;;;;;;;10.50;8.40;;;18.10;99.90;;;;;;5086700;28;20402;-80
2023/09/04 04:32:12;;;;;;;9.90;7.85;;;18.10;99.90;;;;;;5069167;28;20128;-81
2023/09/04 04:34:40;;;;;;;9.27;7.70;;;18.10;99.90;;;;;;5065367;28;20056;-81
2023/09/04 04:37:07;;;;;;;8.27;7.13;;;18.10;99.90;;;;;;5081158;28;20052;-82
2023/09/04 04:39:34;;;;;;;7.20;6.38;;;18.10;99.90;;;;;;5065249;28;20047;-80
2023/09/04 04:42:01;;;;;;;7.65;5.85;;;18.20;99.90;;;;;;5068998;28;20066;-80
2023/09/04 04:44:29;;;;;;;8.52;6.97;;;18.20;99.90;;;;;;5084503;28;20442;-80
2023/09/04 04:46:56;;;;;;;8.65;6.82;;;18.20;99.90;;;;;;5069262;28;20074;-81
2023/09/04 04:49:23;;;;;;;7.00;5.60;;;18.20;99.90;;;;;;5048795;28;20101;-81
2023/09/04 04:51:50;;;;;;;7.95;6.47;;;18.20;99.90;;;;;;5067593;28;20097;-81
2023/09/04 04:54:19;;;;;;;8.30;6.60;;;18.20;99.90;;;;;;5066881;28;20083;-81
2023/09/04 04:56:48;;;;;;;7.80;5.85;;;18.20;99.90;;;;;;5083010;28;20048;-81
2023/09/04 04:59:15;;;;;;;7.47;5.78;;;18.20;99.90;;;;;;5066298;28;20138;-81
2023/09/04 05:01:42;;;;;;;6.07;5.47;;;18.20;99.90;;;;;;5082364;28;20835;-81
2023/09/04 05:04:09;;;;;;;6.30;5.15;;;18.20;99.90;;;;;;5061486;28;20619;-85
2023/09/04 05:06:36;;;;;;;6.05;5.40;;;18.20;99.90;;;;;;5074657;28;20139;-82
2023/09/04 05:09:05;;;;;;;7.07;5.50;;;18.20;99.90;;;;;;5082707;28;20410;-82
2023/09/04 05:11:32;;;;;;;8.82;6.75;;;18.20;99.90;;;;;;5072059;28;20063;-83
2023/09/04 05:14:02;;;;;;;8.10;7.13;;;18.20;99.90;;;;;;5079864;28;20056;-82
2023/09/04 05:16:29;;;;;;;7.72;6.05;;;18.20;99.90;;;;;;5067574;28;20113;-83
2023/09/04 05:18:57;;;;;;;6.30;5.03;;;18.20;99.90;;;;;;5081316;28;20154;-83
2023/09/04 05:21:25;;;;;;;9.48;7.38;;;18.20;99.90;;;;;;5049996;28;20159;-83
2023/09/04 05:23:52;;;;;;;8.85;6.95;;;18.20;99.90;;;;;;5084469;28;20047;-83
2023/09/04 05:26:20;;;;;;;7.50;6.60;;;18.10;99.90;;;;;;5084295;28;20109;-82
2023/09/04 05:28:47;;;;;;;5.93;5.32;;;18.10;99.90;;;;;;5080927;28;20517;-83
2023/09/04 05:31:14;;;;;;;7.05;5.97;;;18.20;99.90;;;;;;5064858;28;20541;-83
2023/09/04 05:33:41;;;;;;;7.80;6.15;;;18.20;99.90;;;;;;5070504;28;20040;-83
2023/09/04 05:36:09;;;;;;;7.75;6.50;;;18.10;99.90;;;;;;5083355;28;20052;-83
2023/09/04 05:38:36;;;;;;;5.93;5.07;;;18.10;99.90;;;;;;5062944;28;20075;-83
2023/09/04 05:41:03;;;;;;;7.63;5.72;;;18.20;99.90;;;;;;5069415;28;20054;-83
2023/09/04 05:43:30;;;;;;;8.02;6.22;;;18.20;99.90;;;;;;5076101;28;20501;-83
2023/09/04 05:45:57;;;;;;;7.60;5.70;;;18.20;99.90;;;;;;5073486;28;20056;-83
2023/09/04 05:48:24;;;;;;;7.53;6.10;;;18.10;99.90;;;;;;5078313;28;20044;-84
2023/09/04 05:50:51;;;;;;;6.72;5.07;;;18.20;99.90;;;;;;5059964;28;20055;-84
2023/09/04 05:53:19;;;;;;;6.72;5.00;;;18.10;99.90;;;;;;5079420;28;20055;-84
2023/09/04 05:56:02;;;;;;;6.60;5.07;;;18.20;99.90;;;;;;5064141;28;20525;-82
2023/09/04 05:58:29;;;;;;;6.82;5.03;;;18.20;99.90;;;;;;5077978;28;20059;-83
2023/09/04 06:00:56;;;;;;;7.00;5.35;;;18.20;99.90;;;;;;5079761;28;20059;-84
2023/09/04 06:03:23;;;;;;;5.88;4.47;;;18.20;99.90;;;;;;5075026;28;20053;-82
2023/09/04 06:05:50;;;;;;;11.88;8.32;;;18.30;99.90;;;;;;5060022;28;20135;-81
2023/09/04 06:08:18;;;;;;;11.25;8.82;;;18.30;99.90;;;;;;5064633;28;20044;-81
2023/09/04 06:10:45;;;;;;;11.85;8.88;;;18.30;99.90;;;;;;5062644;28;20463;-81
2023/09/04 06:13:11;;;;;;;9.52;7.22;;;18.20;99.90;;;;;;5063775;28;20116;-81
2023/09/04 06:15:38;;;;;;;8.77;7.32;;;18.20;99.90;;;;;;5051193;28;20085;-80
2023/09/04 06:18:06;;;;;;;9.25;7.13;;;18.30;99.90;;;;;;5045418;28;20106;-80
2023/09/04 06:20:33;;;;;;;7.38;5.90;;;18.30;99.90;;;;;;5075843;28;20086;-84
2023/09/04 06:23:01;;;;;;;6.28;5.20;;;18.30;99.90;;;;;;5064393;28;20044;-83
2023/09/04 06:25:28;;;;;;;5.78;4.22;;;18.30;99.90;;;;;;5080596;28;20113;-82
2023/09/04 06:27:55;;;;;;;6.15;4.82;;;18.40;99.90;;;;;;5061834;28;20048;-82
2023/09/04 06:30:22;;;;;;;5.40;4.53;;;18.50;99.90;;;;;;5046228;28;20066;-84
2023/09/04 06:32:49;;;;;;;5.97;4.35;;;18.50;99.90;;;;;;5083298;28;20056;-82
2023/09/04 06:35:16;;;;;;;4.95;3.80;;;18.50;99.90;;;;;;5067112;28;20196;-82
2023/09/04 06:37:44;;;;;;;3.95;3.22;;;18.50;99.90;;;;;;5051048;28;20125;-84
2023/09/04 06:40:11;;;;;;;5.15;4.05;;;18.60;99.90;;;;;;5049718;28;20048;-82
2023/09/04 06:42:37;;;;;;;4.90;4.40;;;18.60;99.90;;;;;;5083382;28;20618;-82
2023/09/04 06:45:05;;;;;;;5.03;4.28;;;18.60;99.90;;;;;;5066599;28;20055;-82
2023/09/04 06:47:32;;;;;;;5.55;4.88;;;18.70;99.90;;;;;;5051645;28;20049;-84
2023/09/04 06:50:00;;;;;;;5.57;4.57;;;18.70;99.90;;;;;;5063855;28;20047;-84
2023/09/04 06:52:27;;;;;;;5.78;5.00;;;18.70;99.90;;;;;;5067137;28;20063;-84
2023/09/04 06:54:54;;;;;;;5.47;4.97;;;18.70;99.90;;;;;;5083938;28;20048;-84
2023/09/04 06:57:21;;;;;;;4.80;4.25;;;18.60;99.90;;;;;;5069623;28;20044;-84
2023/09/04 06:59:48;;;;;;;4.38;3.83;;;18.60;99.90;;;;;;5070005;28;20059;-83
2023/09/04 07:02:15;;;;;;;6.45;5.28;;;18.60;99.90;;;;;;5085507;28;20055;-84
2023/09/04 07:04:43;;;;;;;5.72;4.28;;;18.60;99.90;;;;;;5067890;28;20056;-84
2023/09/04 07:07:10;;;;;;;6.80;5.60;;;18.60;99.90;;;;;;5069100;28;20051;-84
2023/09/04 07:09:37;;;;;;;5.63;4.78;;;18.60;99.90;;;;;;5070882;28;20072;-83
2023/09/04 07:12:05;;;;;;;7.85;6.68;;;18.60;99.90;;;;;;5071081;28;20052;-84
2023/09/04 07:14:32;;;;;;;6.97;6.25;;;18.60;99.90;;;;;;5085892;28;20052;-84
2023/09/04 07:16:59;;;;;;;8.80;7.18;;;18.60;99.90;;;;;;5087772;28;20499;-84
2023/09/04 07:19:35;;;;;;;6.88;5.95;;;18.60;99.90;;;;;;5056557;28;20146;-83
2023/09/04 07:22:02;;;;;;;8.02;6.57;;;18.60;99.90;;;;;;5087143;28;20623;-84
2023/09/04 07:24:29;;;;;;;6.05;4.88;;;18.70;99.90;;;;;;5068384;28;20048;-84
2023/09/04 07:26:56;;;;;;;5.63;4.63;;;18.70;99.90;;;;;;5067557;28;20048;-81
2023/09/04 07:29:22;;;;;;;5.38;4.35;;;18.80;99.90;;;;;;5068708;28;20176;-83
2023/09/04 07:31:49;;;;;;;4.63;4.05;;;18.80;99.90;;;;;;5087581;28;20058;-85
2023/09/04 07:34:17;;;;;;;6.35;5.18;;;18.80;99.90;;;;;;5052975;28;20436;-81
2023/09/04 07:36:44;;;;;;;5.22;4.60;;;18.90;99.90;;;;;;5071114;28;20139;-84
2023/09/04 07:39:11;;;;;;;7.13;5.00;;;18.90;99.90;;;;;;5087266;28;20090;-84
2023/09/04 07:41:38;;;;;;;5.30;4.70;;;19.00;99.90;;;;;;5070852;28;20085;-84
2023/09/04 07:44:05;;;;;;;5.95;5.30;;;18.90;99.90;;;;;;5069763;28;20101;-84
2023/09/04 07:46:32;;;;;;;6.57;5.43;;;19.00;90.10;;;;;;5070855;28;20107;-84
2023/09/04 07:48:58;;;;;;;7.13;5.57;;;19.00;88.40;;;;;;5053923;28;20079;-85
2023/09/04 07:51:25;;;;;;;6.90;5.78;;;19.10;86.70;;;;;;5070996;28;20048;-84
2023/09/04 07:54:02;;;;;;;4.60;3.60;;;19.10;92.10;;;;;;5071481;28;20059;-84
2023/09/04 07:56:29;;;;;;;4.57;3.88;;;19.20;74.90;;;;;;5054367;28;20051;-84
2023/09/04 07:59:07;;;;;;;4.78;4.28;;;19.30;29.20;;;;;;5050680;28;20079;-84
2023/09/04 08:01:34;;;;;;;4.93;4.40;;;19.30;1.00;;;;;;5062989;28;20417;-84
2023/09/04 08:04:04;;;;;;;3.97;3.22;;;19.30;1.00;;;;;;5081587;28;20048;-84
2023/09/04 08:06:31;;;;;;;4.97;4.00;;;19.50;1.00;;;;;;5048815;28;20042;-84
2023/09/04 08:08:57;;;;;;;5.47;4.55;;;19.50;1.00;;;;;;5055667;28;20047;-83
2023/09/04 08:11:24;;;;;;;6.93;5.78;;;19.60;1.00;;;;;;5047115;28;20055;-84
2023/09/04 08:13:51;;;;;;;4.97;4.50;;;19.60;1.00;;;;;;5044938;28;20060;-83
2023/09/04 08:16:18;;;;;;;5.18;4.68;;;19.70;1.00;;;;;;5080021;28;20548;-83
2023/09/04 08:18:45;;;;;;;4.22;3.83;;;19.80;1.00;;;;;;5076538;28;20139;-83
2023/09/04 08:21:12;;;;;;;5.32;4.28;;;19.90;99.90;;;;;;5062915;28;20119;-83
2023/09/04 08:23:39;;;;;;;4.72;4.22;;;19.90;99.90;;;;;;5051687;28;20056;-83
2023/09/04 08:26:06;;;;;;;5.60;4.53;;;20.00;99.90;;;;;;5046769;28;20048;-82
2023/09/04 08:28:34;;;;;;;5.50;4.53;;;20.10;99.90;;;;;;5071206;28;20075;-83
2023/09/04 08:31:00;;;;;;;4.53;4.10;;;20.20;99.90;;;;;;5045631;28;20044;-81
2023/09/04 08:33:27;;;;;;;5.38;4.88;;;20.30;99.90;;;;;;5065514;28;20062;-85
2023/09/04 08:35:58;;;;;;;5.65;4.97;;;20.40;1.00;;;;;;5060694;28;20463;-84
2023/09/04 08:38:24;;;;;;;5.53;5.03;;;20.50;99.90;;;;;;5066186;28;20051;-82
2023/09/04 08:40:51;;;;;;;4.88;4.38;;;20.60;99.90;;;;;;5080593;28;20109;-83
2023/09/04 08:43:18;;;;;;;5.28;4.50;;;20.70;99.90;;;;;;5063473;28;20815;-83
2023/09/04 08:45:45;;;;;;;3.50;3.20;;;20.80;27.80;;;;;;5065830;28;20132;-83
2023/09/04 08:48:15;;;;;;;3.65;3.35;;;20.90;26.80;;;;;;5063450;28;20048;-83
2023/09/04 08:50:43;;;;;;;2.90;2.50;;;21.00;99.90;;;;;;5047601;28;20429;-83
2023/09/04 08:53:10;;;;;;;3.22;2.70;;;21.10;99.90;;;;;;5081728;28;20044;-83
2023/09/04 08:55:37;;;;;;;2.58;2.17;;;21.20;1.00;;;;;;5066181;28;20036;-81
2023/09/04 08:58:03;;;;;;;2.70;2.50;;;21.40;99.90;;;;;;5094372;28;20051;-84
2023/09/04 09:00:30;;;;;;;3.67;3.33;;;21.50;99.90;;;;;;5062069;28;20553;-84
2023/09/04 09:03:00;;;;;;;3.28;2.80;;;21.60;1.00;;;;;;5055074;28;20043;-81
2023/09/04 09:05:29;;;;;;;3.58;2.35;;;21.70;1.00;;;;;;5075986;28;20418;-82
2023/09/04 09:07:56;;;;;;;2.92;2.53;;;21.90;99.90;;;;;;5045364;28;20332;-82
2023/09/04 09:10:23;;;;;;;2.22;2.03;;;22.10;1.00;;;;;;5081696;28;20635;-81
2023/09/04 09:12:50;;;;;;;2.90;2.42;;;22.10;1.00;;;;;;5061849;28;20055;-81
2023/09/04 09:15:18;;;;;;;3.92;2.95;;;22.20;1.00;;;;;;5046491;28;20682;-73
2023/09/04 09:17:53;;;;;;;2.97;2.63;;;22.30;1.00;;;;;;5081093;28;20483;-73
2023/09/04 09:20:39;;;;;;;2.58;2.35;;;22.40;1.00;;;;;;5073262;28;20087;-74
2023/09/04 09:23:06;;;;;;;2.90;2.58;;;22.60;1.00;;;;;;5072797;28;20075;-74
2023/09/04 09:25:33;;;;;;;2.65;2.42;;;22.70;1.00;;;;;;5083196;28;20166;-74
2023/09/04 09:28:01;;;;;;;2.72;1.90;;;22.70;1.00;;;;;;5082006;28;20055;-74
2023/09/04 09:30:35;;;;;;;2.10;1.63;;;22.80;1.00;;;;;;5066253;28;20117;-74
2023/09/04 09:33:07;;;;;;;3.55;2.08;;;23.00;1.00;;;;;;5050904;28;20048;-75
2023/09/04 09:35:34;;;;;;;2.42;2.15;;;23.10;1.00;;;;;;5081849;28;20495;-75
2023/09/04 09:38:01;;;;;;;2.08;1.75;;;23.20;1.00;;;;;;5062072;28;20060;-75
2023/09/04 09:40:28;;;;;;;2.53;2.00;;;23.30;1.00;;;;;;5081373;28;20140;-75
2023/09/04 09:42:55;;;;;;;2.47;2.10;;;23.40;1.00;;;;;;5066381;28;20048;-75
2023/09/04 09:45:22;;;;;;;1.67;1.50;;;23.50;1.00;;;;;;5084612;28;20613;-75
2023/09/04 09:47:50;;;;;;;2.00;1.80;;;23.60;1.00;;;;;;5084853;28;20502;-75
2023/09/04 09:50:18;;;;;;;2.25;1.98;;;23.70;1.00;;;;;;5084450;28;20066;-75
2023/09/04 09:53:00;;;;;;;2.55;1.50;;;23.80;1.00;;;;;;5067348;28;20101;-74
2023/09/04 09:55:28;;;;;;;2.33;1.83;;;23.80;1.00;;;;;;5068219;28;20056;-75
2023/09/04 09:57:55;;;;;;;2.25;1.90;;;23.80;1.00;;;;;;5067544;28;20056;-75
2023/09/04 10:00:22;;;;;;;2.17;1.92;;;24.00;1.00;;;;;;5067746;28;20103;-75
2023/09/04 10:02:49;;;;;;;2.20;1.85;;;24.00;1.00;;;;;;5084282;28;20097;-75
2023/09/04 10:05:16;;;;;;;1.92;1.40;;;24.20;1.00;;;;;;5085332;28;20055;-75
2023/09/04 10:07:44;;;;;;;2.10;1.80;;;24.20;1.00;;;;;;5085184;28;20134;-75
2023/09/04 10:10:11;;;;;;;2.63;1.83;;;24.30;1.00;;;;;;5067309;28;20130;-75
2023/09/04 10:12:43;;;;;;;2.45;1.90;;;24.40;1.00;;;;;;5084509;28;20786;-75
2023/09/04 10:15:10;;;;;;;2.30;2.10;;;24.50;1.00;;;;;;5083187;28;20055;-74
2023/09/04 10:17:45;;;;;;;2.03;1.70;;;24.60;99.90;;;;;;5084204;28;20052;-75
2023/09/04 10:20:13;;;;;;;2.00;1.63;;;24.70;99.90;;;;;;5067901;28;20564;-75
2023/09/04 10:22:54;;;;;;;2.35;1.80;;;24.80;99.90;;;;;;5084260;28;20052;-75
2023/09/04 10:25:33;;;;;;;2.88;2.25;;;25.00;99.90;;;;;;5064567;28;20087;-74
2023/09/04 10:28:06;;;;;;;1.98;1.70;;;25.00;99.90;;;;;;5080400;28;20212;-75
2023/09/04 10:30:36;;;;;;;2.58;1.75;;;25.10;99.90;;;;;;5085785;28;20052;-75
2023/09/04 10:33:03;;;;;;;2.10;1.73;;;25.20;99.90;;;;;;5088389;28;20070;-74
2023/09/04 10:35:30;;;;;;;1.85;1.50;;;25.30;99.90;;;;;;5088545;28;20101;-74
2023/09/04 10:37:57;;;;;;;1.80;1.60;;;25.40;99.90;;;;;;5071675;28;20040;-75
2023/09/04 10:40:24;;;;;;;1.98;1.77;;;25.40;99.90;;;;;;5089409;28;20064;-75
2023/09/04 10:42:50;;;;;;;1.88;1.63;;;25.40;99.90;;;;;;5088424;28;20044;-75
2023/09/04 10:45:18;;;;;;;1.98;1.52;;;25.50;99.90;;;;;;5086596;28;20073;-75
2023/09/04 10:47:46;;;;;;;1.85;1.50;;;25.70;99.90;;;;;;5071094;28;20390;-75
2023/09/04 10:50:31;;;;;;;1.63;1.30;;;25.70;99.90;;;;;;5055081;28;20059;-75
2023/09/04 10:53:00;;;;;;;1.50;1.30;;;25.80;99.90;;;;;;5071067;28;20056;-74
2023/09/04 10:55:28;;;;;;;1.42;1.10;;;26.00;99.90;;;;;;5088435;28;20515;-74
2023/09/04 10:58:07;;;;;;;2.35;1.88;;;26.10;99.90;;;;;;5087735;28;20051;-74
2023/09/04 11:00:38;;;;;;;1.50;1.20;;;26.20;99.90;;;;;;5071570;28;20091;-74
2023/09/04 11:03:17;;;;;;;1.65;1.50;;;26.30;99.90;;;;;;5070762;28;20149;-74
2023/09/04 11:06:05;;;;;;;1.63;1.25;;;26.40;99.90;;;;;;5089518;28;20058;-74
2023/09/04 11:08:33;;;;;;;1.83;1.50;;;26.50;99.90;;;;;;5089037;28;20093;-74
2023/09/04 11:11:01;;;;;;;1.52;1.25;;;26.60;99.90;;;;;;5087976;28;20399;-74
2023/09/04 11:13:28;;;;;;;1.80;1.50;;;26.60;99.90;;;;;;5069436;28;20068;-74
2023/09/04 11:15:56;;;;;;;1.60;1.40;;;26.70;99.90;;;;;;5070878;28;20131;-75
2023/09/04 11:18:28;;;;;;;1.77;1.60;;;26.90;99.90;;;;;;5068931;28;20048;-75
2023/09/04 11:20:55;;;;;;;2.20;1.80;;;26.90;99.90;;;;;;5067716;28;20117;-75
2023/09/04 11:23:25;;;;;;;2.83;2.25;;;26.90;99.90;;;;;;5067591;28;20040;-75
2023/09/04 11:25:52;;;;;;;2.40;1.90;;;27.00;99.90;;;;;;5084577;28;20105;-75
2023/09/04 11:28:23;;;;;;;2.63;1.98;;;27.10;99.90;;;;;;5066732;28;20109;-74
2023/09/04 11:30:59;;;;;;;1.77;1.52;;;27.30;99.90;;;;;;5068468;28;20055;-75
2023/09/04 11:33:27;;;;;;;2.15;1.95;;;27.50;99.90;;;;;;5083739;28;20055;-75
2023/09/04 11:36:02;;;;;;;2.25;1.80;;;27.70;99.90;;;;;;5087196;28;20075;-75
2023/09/04 11:38:30;;;;;;;2.17;1.70;;;28.00;99.90;;;;;;5088302;28;20616;-75
2023/09/04 11:40:57;;;;;;;1.77;1.67;;;28.10;99.90;;;;;;5087433;28;20047;-75
2023/09/04 11:43:25;;;;;;;1.77;1.50;;;28.20;99.90;;;;;;5085441;28;20052;-75
2023/09/04 11:45:55;;;;;;;2.83;1.90;;;28.40;99.90;;;;;;5070592;28;20081;-74
2023/09/04 11:48:26;;;;;;;2.38;2.05;;;28.60;99.90;;;;;;5084986;28;20044;-75
2023/09/04 11:50:53;;;;;;;3.20;2.38;;;28.70;99.90;;;;;;5067333;28;20051;-74
2023/09/04 11:53:23;;;;;;;2.30;2.10;;;28.80;99.90;;;;;;5084648;28;20083;-75
2023/09/04 11:55:51;;;;;;;2.25;2.05;;;29.00;99.90;;;;;;5070650;28;20056;-75
2023/09/04 11:58:19;;;;;;;2.15;1.70;;;29.20;99.90;;;;;;5085120;28;20048;-75
2023/09/04 12:00:46;;;;;;;1.73;1.60;;;29.50;99.90;;;;;;5085562;28;20099;-75
2023/09/04 12:03:13;;;;;;;1.92;1.75;;;29.50;99.90;;;;;;5083223;28;20074;-75
2023/09/04 12:05:39;;;;;;;2.28;2.08;;;29.60;99.90;;;;;;5086290;28;20555;-76
2023/09/04 12:08:06;;;;;;;2.05;1.85;;;29.60;99.90;;;;;;5086510;28;20413;-75
2023/09/04 12:10:33;;;;;;;2.20;1.80;;;29.70;99.90;;;;;;5087416;28;20101;-75
2023/09/04 12:13:01;;;;;;;2.33;1.83;;;29.90;99.90;;;;;;5085552;28;20132;-74
2023/09/04 12:15:35;;;;;;;2.55;1.70;;;30.10;99.90;;;;;;5086740;28;20139;-76
2023/09/04 12:18:03;;;;;;;2.08;1.88;;;30.40;99.90;;;;;;5086519;28;20059;-76
2023/09/04 12:20:36;;;;;;;1.65;1.55;;;30.50;99.90;;;;;;5086540;28;20047;-76
2023/09/04 12:23:03;;;;;;;1.75;1.65;;;30.90;99.90;;;;;;5069071;28;20066;-75
2023/09/04 12:25:37;;;;;;;2.05;1.70;;;31.10;99.90;;;;;;5083503;28;20044;-75
2023/09/04 12:28:11;;;;;;;3.08;2.00;;;31.40;99.90;;;;;;5065503;28;20108;-76
2023/09/04 12:30:44;;;;;;;2.35;2.15;;;31.40;99.90;;;;;;5088022;28;20048;-76
2023/09/04 12:33:12;;;;;;;2.38;2.00;;;31.60;99.90;;;;;;5087149;28;20067;-75
2023/09/04 12:35:40;;;;;;;1.85;1.67;;;31.70;99.90;;;;;;5086792;28;20189;-75
2023/09/04 12:38:07;;;;;;;1.90;1.70;;;31.80;99.90;;;;;;5069807;28;20043;-76
2023/09/04 12:40:34;;;;;;;1.90;1.70;;;32.20;99.90;;;;;;5086471;28;20063;-76
2023/09/04 12:43:02;;;;;;;1.83;1.65;;;32.40;99.90;;;;;;5085501;28;20044;-76
2023/09/04 12:45:29;;;;;;;2.20;2.00;;;32.80;99.90;;;;;;5087872;28;20047;-76
2023/09/04 12:47:59;;;;;;;2.00;1.80;;;33.00;99.90;;;;;;5086010;28;20044;-76
2023/09/04 12:50:26;;;;;;;2.00;1.80;;;32.90;99.90;;;;;;5069785;28;20055;-75
2023/09/04 12:52:54;;;;;;;2.20;2.00;;;33.00;99.90;;;;;;5068782;28;20048;-76